sensor_id;sensor_type;location;lat;lon;timestamp;P1;durP1;ratioP1;P2;durP2;ratioP2
69623;SDS011;56843;52.020;5.670;2022-08-14T00:01:27;7.97;;;3.57;;
69623;SDS011;56843;52.020;5.670;2022-08-14T00:02:59;7.13;;;3.50;;
69623;SDS011;56843;52.020;5.670;2022-08-14T00:04:31;10.80;;;3.87;;
69623;SDS011;56843;52.020;5.670;2022-08-14T00:06:03;6.18;;;3.33;;
69623;SDS011;56843;52.020;5.670;2022-08-14T00:07:33;7.93;;;3.58;;
69623;SDS011;56843;52.020;5.670;2022-08-14T00:09:04;10.35;;;3.28;;
69623;SDS011;56843;52.020;5.670;2022-08-14T00:10:35;6.57;;;3.33;;
69623;SDS011;56843;52.020;5.670;2022-08-14T00:12:05;6.47;;;3.33;;
69623;SDS011;56843;52.020;5.670;2022-08-14T00:13:36;7.18;;;3.55;;
69623;SDS011;56843;52.020;5.670;2022-08-14T00:15:09;8.85;;;3.63;;
69623;SDS011;56843;52.020;5.670;2022-08-14T00:16:45;6.17;;;3.07;;
69623;SDS011;56843;52.020;5.670;2022-08-14T00:18:19;6.73;;;3.57;;
69623;SDS011;56843;52.020;5.670;2022-08-14T00:19:51;6.55;;;3.35;;
69623;SDS011;56843;52.020;5.670;2022-08-14T00:21:22;10.27;;;3.70;;
69623;SDS011;56843;52.020;5.670;2022-08-14T00:22:52;8.00;;;3.73;;
69623;SDS011;56843;52.020;5.670;2022-08-14T00:24:23;8.63;;;3.90;;
69623;SDS011;56843;52.020;5.670;2022-08-14T00:25:54;7.25;;;3.80;;
69623;SDS011;56843;52.020;5.670;2022-08-14T00:27:25;10.20;;;3.87;;
69623;SDS011;56843;52.020;5.670;2022-08-14T00:28:55;8.80;;;3.57;;
69623;SDS011;56843;52.020;5.670;2022-08-14T00:30:26;8.23;;;4.20;;
69623;SDS011;56843;52.020;5.670;2022-08-14T00:31:56;7.63;;;3.90;;
69623;SDS011;56843;52.020;5.670;2022-08-14T00:33:27;5.93;;;3.23;;
69623;SDS011;56843;52.020;5.670;2022-08-14T00:34:58;6.88;;;3.47;;
69623;SDS011;56843;52.020;5.670;2022-08-14T00:36:30;13.02;;;3.83;;
69623;SDS011;56843;52.020;5.670;2022-08-14T00:38:01;11.27;;;3.53;;
69623;SDS011;56843;52.020;5.670;2022-08-14T00:39:31;7.40;;;3.65;;
69623;SDS011;56843;52.020;5.670;2022-08-14T00:41:03;8.97;;;3.63;;
69623;SDS011;56843;52.020;5.670;2022-08-14T00:42:36;6.72;;;3.80;;
69623;SDS011;56843;52.020;5.670;2022-08-14T00:44:06;9.73;;;3.50;;
69623;SDS011;56843;52.020;5.670;2022-08-14T00:45:37;8.63;;;3.95;;
69623;SDS011;56843;52.020;5.670;2022-08-14T00:47:07;9.40;;;4.17;;
69623;SDS011;56843;52.020;5.670;2022-08-14T00:48:38;10.95;;;4.28;;
69623;SDS011;56843;52.020;5.670;2022-08-14T00:50:09;9.45;;;3.70;;
69623;SDS011;56843;52.020;5.670;2022-08-14T00:51:42;10.00;;;4.00;;
69623;SDS011;56843;52.020;5.670;2022-08-14T00:53:13;5.18;;;2.55;;
69623;SDS011;56843;52.020;5.670;2022-08-14T00:54:46;12.73;;;3.85;;
69623;SDS011;56843;52.020;5.670;2022-08-14T00:56:22;6.70;;;3.40;;
69623;SDS011;56843;52.020;5.670;2022-08-14T00:57:54;13.48;;;3.60;;
69623;SDS011;56843;52.020;5.670;2022-08-14T00:59:43;9.20;;;3.58;;
69623;SDS011;56843;52.020;5.670;2022-08-14T01:01:14;10.30;;;4.13;;
69623;SDS011;56843;52.020;5.670;2022-08-14T01:02:47;11.55;;;4.15;;
69623;SDS011;56843;52.020;5.670;2022-08-14T01:04:22;7.47;;;3.65;;
69623;SDS011;56843;52.020;5.670;2022-08-14T01:05:53;9.90;;;3.63;;
69623;SDS011;56843;52.020;5.670;2022-08-14T01:07:26;11.52;;;4.55;;
69623;SDS011;56843;52.020;5.670;2022-08-14T01:08:59;8.05;;;4.38;;
69623;SDS011;56843;52.020;5.670;2022-08-14T01:10:31;8.57;;;4.10;;
69623;SDS011;56843;52.020;5.670;2022-08-14T01:12:21;8.80;;;4.37;;
69623;SDS011;56843;52.020;5.670;2022-08-14T01:13:52;9.77;;;3.80;;
69623;SDS011;56843;52.020;5.670;2022-08-14T01:15:29;7.40;;;3.80;;
69623;SDS011;56843;52.020;5.670;2022-08-14T01:16:59;7.75;;;3.35;;
69623;SDS011;56843;52.020;5.670;2022-08-14T01:18:30;10.90;;;4.07;;
69623;SDS011;56843;52.020;5.670;2022-08-14T01:20:20;8.35;;;3.80;;
69623;SDS011;56843;52.020;5.670;2022-08-14T01:22:10;8.38;;;4.43;;
69623;SDS011;56843;52.020;5.670;2022-08-14T01:23:42;8.00;;;3.73;;
69623;SDS011;56843;52.020;5.670;2022-08-14T01:25:14;8.23;;;4.13;;
69623;SDS011;56843;52.020;5.670;2022-08-14T01:26:44;7.32;;;4.00;;
69623;SDS011;56843;52.020;5.670;2022-08-14T01:28:15;9.17;;;3.67;;
69623;SDS011;56843;52.020;5.670;2022-08-14T01:29:46;7.27;;;3.63;;
69623;SDS011;56843;52.020;5.670;2022-08-14T01:31:21;9.07;;;3.97;;
69623;SDS011;56843;52.020;5.670;2022-08-14T01:32:54;7.68;;;4.13;;
69623;SDS011;56843;52.020;5.670;2022-08-14T01:34:24;10.32;;;4.18;;
69623;SDS011;56843;52.020;5.670;2022-08-14T01:35:55;8.90;;;3.90;;
69623;SDS011;56843;52.020;5.670;2022-08-14T01:37:29;9.15;;;3.55;;
69623;SDS011;56843;52.020;5.670;2022-08-14T01:39:00;10.23;;;4.23;;
69623;SDS011;56843;52.020;5.670;2022-08-14T01:40:30;7.50;;;3.92;;
69623;SDS011;56843;52.020;5.670;2022-08-14T01:42:01;7.47;;;3.97;;
69623;SDS011;56843;52.020;5.670;2022-08-14T01:43:31;8.15;;;4.32;;
69623;SDS011;56843;52.020;5.670;2022-08-14T01:45:07;8.97;;;3.90;;
69623;SDS011;56843;52.020;5.670;2022-08-14T01:46:42;6.77;;;3.47;;
69623;SDS011;56843;52.020;5.670;2022-08-14T01:48:13;9.25;;;4.47;;
69623;SDS011;56843;52.020;5.670;2022-08-14T01:49:45;7.80;;;4.10;;
69623;SDS011;56843;52.020;5.670;2022-08-14T01:51:16;11.00;;;4.60;;
69623;SDS011;56843;52.020;5.670;2022-08-14T01:52:51;8.35;;;3.65;;
69623;SDS011;56843;52.020;5.670;2022-08-14T01:54:23;7.78;;;4.10;;
69623;SDS011;56843;52.020;5.670;2022-08-14T01:55:54;8.70;;;4.23;;
69623;SDS011;56843;52.020;5.670;2022-08-14T01:57:27;6.57;;;3.63;;
69623;SDS011;56843;52.020;5.670;2022-08-14T01:58:58;8.32;;;3.97;;
69623;SDS011;56843;52.020;5.670;2022-08-14T02:00:29;9.35;;;4.20;;
69623;SDS011;56843;52.020;5.670;2022-08-14T02:02:00;7.77;;;3.80;;
69623;SDS011;56843;52.020;5.670;2022-08-14T02:03:38;14.88;;;4.30;;
69623;SDS011;56843;52.020;5.670;2022-08-14T02:05:12;7.55;;;4.32;;
69623;SDS011;56843;52.020;5.670;2022-08-14T02:06:43;8.80;;;4.47;;
69623;SDS011;56843;52.020;5.670;2022-08-14T02:08:13;7.50;;;3.90;;
69623;SDS011;56843;52.020;5.670;2022-08-14T02:09:44;8.07;;;3.92;;
69623;SDS011;56843;52.020;5.670;2022-08-14T02:11:14;7.70;;;4.07;;
69623;SDS011;56843;52.020;5.670;2022-08-14T02:12:51;9.23;;;4.10;;
69623;SDS011;56843;52.020;5.670;2022-08-14T02:14:21;7.00;;;4.15;;
69623;SDS011;56843;52.020;5.670;2022-08-14T02:15:52;8.27;;;3.83;;
69623;SDS011;56843;52.020;5.670;2022-08-14T02:17:24;9.33;;;4.40;;
69623;SDS011;56843;52.020;5.670;2022-08-14T02:18:55;9.23;;;4.13;;
69623;SDS011;56843;52.020;5.670;2022-08-14T02:20:28;7.18;;;3.63;;
69623;SDS011;56843;52.020;5.670;2022-08-14T02:22:02;7.35;;;3.85;;
69623;SDS011;56843;52.020;5.670;2022-08-14T02:23:33;8.13;;;4.27;;
69623;SDS011;56843;52.020;5.670;2022-08-14T02:25:04;7.85;;;4.03;;
69623;SDS011;56843;52.020;5.670;2022-08-14T02:26:36;8.63;;;4.22;;
69623;SDS011;56843;52.020;5.670;2022-08-14T02:28:08;15.82;;;4.30;;
69623;SDS011;56843;52.020;5.670;2022-08-14T02:29:39;9.38;;;4.22;;
69623;SDS011;56843;52.020;5.670;2022-08-14T02:31:10;10.33;;;4.23;;
69623;SDS011;56843;52.020;5.670;2022-08-14T02:32:42;8.20;;;4.20;;
69623;SDS011;56843;52.020;5.670;2022-08-14T02:34:34;9.60;;;4.20;;
69623;SDS011;56843;52.020;5.670;2022-08-14T02:36:05;8.55;;;4.50;;
69623;SDS011;56843;52.020;5.670;2022-08-14T02:37:36;10.07;;;4.32;;
69623;SDS011;56843;52.020;5.670;2022-08-14T02:39:09;7.78;;;3.97;;
69623;SDS011;56843;52.020;5.670;2022-08-14T02:40:40;9.40;;;4.13;;
69623;SDS011;56843;52.020;5.670;2022-08-14T02:42:12;8.17;;;3.93;;
69623;SDS011;56843;52.020;5.670;2022-08-14T02:43:43;9.30;;;4.35;;
69623;SDS011;56843;52.020;5.670;2022-08-14T02:45:14;7.60;;;3.93;;
69623;SDS011;56843;52.020;5.670;2022-08-14T02:46:44;8.90;;;4.20;;
69623;SDS011;56843;52.020;5.670;2022-08-14T02:48:15;8.83;;;4.27;;
69623;SDS011;56843;52.020;5.670;2022-08-14T02:49:45;11.60;;;4.53;;
69623;SDS011;56843;52.020;5.670;2022-08-14T02:51:16;8.00;;;4.27;;
69623;SDS011;56843;52.020;5.670;2022-08-14T02:52:46;7.00;;;3.88;;
69623;SDS011;56843;52.020;5.670;2022-08-14T02:54:16;7.33;;;4.13;;
69623;SDS011;56843;52.020;5.670;2022-08-14T02:55:47;7.27;;;3.90;;
69623;SDS011;56843;52.020;5.670;2022-08-14T02:57:17;15.07;;;4.38;;
69623;SDS011;56843;52.020;5.670;2022-08-14T02:58:51;14.07;;;3.95;;
69623;SDS011;56843;52.020;5.670;2022-08-14T03:00:22;7.70;;;4.23;;
69623;SDS011;56843;52.020;5.670;2022-08-14T03:01:53;7.90;;;3.83;;
69623;SDS011;56843;52.020;5.670;2022-08-14T03:03:25;8.20;;;4.18;;
69623;SDS011;56843;52.020;5.670;2022-08-14T03:04:55;9.63;;;4.10;;
69623;SDS011;56843;52.020;5.670;2022-08-14T03:06:26;9.05;;;5.35;;
69623;SDS011;56843;52.020;5.670;2022-08-14T03:08:11;14.17;;;4.30;;
69623;SDS011;56843;52.020;5.670;2022-08-14T03:09:43;8.77;;;4.22;;
69623;SDS011;56843;52.020;5.670;2022-08-14T03:11:13;10.47;;;4.63;;
69623;SDS011;56843;52.020;5.670;2022-08-14T03:12:45;8.18;;;4.32;;
69623;SDS011;56843;52.020;5.670;2022-08-14T03:14:15;7.90;;;4.30;;
69623;SDS011;56843;52.020;5.670;2022-08-14T03:15:46;10.17;;;4.20;;
69623;SDS011;56843;52.020;5.670;2022-08-14T03:17:22;8.40;;;4.43;;
69623;SDS011;56843;52.020;5.670;2022-08-14T03:18:53;8.10;;;4.38;;
69623;SDS011;56843;52.020;5.670;2022-08-14T03:20:29;8.45;;;4.57;;
69623;SDS011;56843;52.020;5.670;2022-08-14T03:21:59;8.17;;;4.80;;
69623;SDS011;56843;52.020;5.670;2022-08-14T03:23:30;9.20;;;4.50;;
69623;SDS011;56843;52.020;5.670;2022-08-14T03:25:04;9.18;;;4.50;;
69623;SDS011;56843;52.020;5.670;2022-08-14T03:26:35;9.32;;;4.65;;
69623;SDS011;56843;52.020;5.670;2022-08-14T03:28:08;7.73;;;3.80;;
69623;SDS011;56843;52.020;5.670;2022-08-14T03:29:40;8.20;;;4.77;;
69623;SDS011;56843;52.020;5.670;2022-08-14T03:31:10;8.70;;;4.53;;
69623;SDS011;56843;52.020;5.670;2022-08-14T03:32:41;8.85;;;4.65;;
69623;SDS011;56843;52.020;5.670;2022-08-14T03:34:13;12.83;;;4.73;;
69623;SDS011;56843;52.020;5.670;2022-08-14T03:35:44;9.73;;;4.93;;
69623;SDS011;56843;52.020;5.670;2022-08-14T03:37:14;7.83;;;4.40;;
69623;SDS011;56843;52.020;5.670;2022-08-14T03:38:45;9.90;;;4.35;;
69623;SDS011;56843;52.020;5.670;2022-08-14T03:40:21;9.20;;;4.60;;
69623;SDS011;56843;52.020;5.670;2022-08-14T03:41:54;7.07;;;3.83;;
69623;SDS011;56843;52.020;5.670;2022-08-14T03:43:25;12.25;;;4.28;;
69623;SDS011;56843;52.020;5.670;2022-08-14T03:44:56;8.98;;;4.45;;
69623;SDS011;56843;52.020;5.670;2022-08-14T03:46:29;7.45;;;4.40;;
69623;SDS011;56843;52.020;5.670;2022-08-14T03:48:12;9.68;;;5.20;;
69623;SDS011;56843;52.020;5.670;2022-08-14T03:49:55;9.02;;;4.97;;
69623;SDS011;56843;52.020;5.670;2022-08-14T03:51:26;8.70;;;4.53;;
69623;SDS011;56843;52.020;5.670;2022-08-14T03:52:58;12.68;;;4.10;;
69623;SDS011;56843;52.020;5.670;2022-08-14T03:54:30;10.95;;;4.60;;
69623;SDS011;56843;52.020;5.670;2022-08-14T03:56:05;9.02;;;5.03;;
69623;SDS011;56843;52.020;5.670;2022-08-14T03:57:39;9.70;;;5.10;;
69623;SDS011;56843;52.020;5.670;2022-08-14T03:59:10;11.30;;;5.23;;
69623;SDS011;56843;52.020;5.670;2022-08-14T04:00:42;10.30;;;4.73;;
69623;SDS011;56843;52.020;5.670;2022-08-14T04:02:15;8.18;;;4.18;;
69623;SDS011;56843;52.020;5.670;2022-08-14T04:03:46;9.57;;;5.47;;
69623;SDS011;56843;52.020;5.670;2022-08-14T04:05:36;8.85;;;4.53;;
69623;SDS011;56843;52.020;5.670;2022-08-14T04:07:07;12.73;;;4.97;;
69623;SDS011;56843;52.020;5.670;2022-08-14T04:08:40;9.33;;;5.10;;
69623;SDS011;56843;52.020;5.670;2022-08-14T04:10:12;11.15;;;5.03;;
69623;SDS011;56843;52.020;5.670;2022-08-14T04:11:43;8.68;;;4.88;;
69623;SDS011;56843;52.020;5.670;2022-08-14T04:13:14;9.63;;;4.75;;
69623;SDS011;56843;52.020;5.670;2022-08-14T04:14:47;8.40;;;4.78;;
69623;SDS011;56843;52.020;5.670;2022-08-14T04:16:18;10.73;;;5.10;;
69623;SDS011;56843;52.020;5.670;2022-08-14T04:17:51;8.70;;;4.53;;
69623;SDS011;56843;52.020;5.670;2022-08-14T04:19:22;9.38;;;5.07;;
69623;SDS011;56843;52.020;5.670;2022-08-14T04:20:53;11.50;;;5.03;;
69623;SDS011;56843;52.020;5.670;2022-08-14T04:22:24;11.15;;;5.70;;
69623;SDS011;56843;52.020;5.670;2022-08-14T04:23:55;8.50;;;4.57;;
69623;SDS011;56843;52.020;5.670;2022-08-14T04:25:27;14.17;;;5.40;;
69623;SDS011;56843;52.020;5.670;2022-08-14T04:26:57;8.52;;;4.95;;
69623;SDS011;56843;52.020;5.670;2022-08-14T04:28:28;12.13;;;5.77;;
69623;SDS011;56843;52.020;5.670;2022-08-14T04:29:59;13.05;;;4.72;;
69623;SDS011;56843;52.020;5.670;2022-08-14T04:31:30;10.55;;;5.03;;
69623;SDS011;56843;52.020;5.670;2022-08-14T04:33:00;10.43;;;4.77;;
69623;SDS011;56843;52.020;5.670;2022-08-14T04:34:31;10.20;;;5.33;;
69623;SDS011;56843;52.020;5.670;2022-08-14T04:36:04;8.75;;;5.10;;
69623;SDS011;56843;52.020;5.670;2022-08-14T04:37:34;9.98;;;5.20;;
69623;SDS011;56843;52.020;5.670;2022-08-14T04:39:23;8.57;;;4.90;;
69623;SDS011;56843;52.020;5.670;2022-08-14T04:41:12;9.80;;;5.10;;
69623;SDS011;56843;52.020;5.670;2022-08-14T04:43:01;14.07;;;4.80;;
69623;SDS011;56843;52.020;5.670;2022-08-14T04:44:50;14.40;;;5.60;;
69623;SDS011;56843;52.020;5.670;2022-08-14T04:46:22;7.47;;;3.67;;
69623;SDS011;56843;52.020;5.670;2022-08-14T04:47:53;11.50;;;5.22;;
69623;SDS011;56843;52.020;5.670;2022-08-14T04:49:42;10.05;;;5.22;;
69623;SDS011;56843;52.020;5.670;2022-08-14T04:51:13;12.67;;;5.13;;
69623;SDS011;56843;52.020;5.670;2022-08-14T04:52:45;12.32;;;5.53;;
69623;SDS011;56843;52.020;5.670;2022-08-14T04:54:18;12.48;;;5.40;;
69623;SDS011;56843;52.020;5.670;2022-08-14T04:55:49;10.90;;;5.73;;
69623;SDS011;56843;52.020;5.670;2022-08-14T04:57:20;9.95;;;5.13;;
69623;SDS011;56843;52.020;5.670;2022-08-14T04:58:54;10.18;;;5.22;;
69623;SDS011;56843;52.020;5.670;2022-08-14T05:00:28;11.83;;;6.00;;
69623;SDS011;56843;52.020;5.670;2022-08-14T05:01:58;13.73;;;5.57;;
69623;SDS011;56843;52.020;5.670;2022-08-14T05:03:30;12.33;;;5.20;;
69623;SDS011;56843;52.020;5.670;2022-08-14T05:05:02;10.10;;;5.85;;
69623;SDS011;56843;52.020;5.670;2022-08-14T05:06:33;8.82;;;4.55;;
69623;SDS011;56843;52.020;5.670;2022-08-14T05:08:04;10.60;;;5.73;;
69623;SDS011;56843;52.020;5.670;2022-08-14T05:09:41;11.07;;;5.18;;
69623;SDS011;56843;52.020;5.670;2022-08-14T05:11:11;12.27;;;5.67;;
69623;SDS011;56843;52.020;5.670;2022-08-14T05:12:42;12.40;;;5.70;;
69623;SDS011;56843;52.020;5.670;2022-08-14T05:14:13;11.57;;;5.40;;
69623;SDS011;56843;52.020;5.670;2022-08-14T05:15:44;9.30;;;5.20;;
69623;SDS011;56843;52.020;5.670;2022-08-14T05:17:15;9.27;;;5.63;;
69623;SDS011;56843;52.020;5.670;2022-08-14T05:18:46;9.05;;;5.35;;
69623;SDS011;56843;52.020;5.670;2022-08-14T05:20:18;11.70;;;5.53;;
69623;SDS011;56843;52.020;5.670;2022-08-14T05:21:49;9.63;;;5.00;;
69623;SDS011;56843;52.020;5.670;2022-08-14T05:23:21;9.30;;;5.37;;
69623;SDS011;56843;52.020;5.670;2022-08-14T05:24:52;8.23;;;4.75;;
69623;SDS011;56843;52.020;5.670;2022-08-14T05:26:23;9.83;;;5.50;;
69623;SDS011;56843;52.020;5.670;2022-08-14T05:27:53;10.73;;;5.83;;
69623;SDS011;56843;52.020;5.670;2022-08-14T05:29:25;11.20;;;5.18;;
69623;SDS011;56843;52.020;5.670;2022-08-14T05:30:57;13.70;;;5.15;;
69623;SDS011;56843;52.020;5.670;2022-08-14T05:32:28;12.33;;;5.30;;
69623;SDS011;56843;52.020;5.670;2022-08-14T05:33:59;11.87;;;6.17;;
69623;SDS011;56843;52.020;5.670;2022-08-14T05:35:29;12.43;;;6.33;;
69623;SDS011;56843;52.020;5.670;2022-08-14T05:37:01;11.32;;;5.63;;
69623;SDS011;56843;52.020;5.670;2022-08-14T05:38:33;10.48;;;6.05;;
69623;SDS011;56843;52.020;5.670;2022-08-14T05:40:05;9.52;;;5.55;;
69623;SDS011;56843;52.020;5.670;2022-08-14T05:41:39;9.60;;;5.85;;
69623;SDS011;56843;52.020;5.670;2022-08-14T05:43:10;11.20;;;6.50;;
69623;SDS011;56843;52.020;5.670;2022-08-14T05:44:40;10.67;;;5.90;;
69623;SDS011;56843;52.020;5.670;2022-08-14T05:46:11;13.33;;;5.53;;
69623;SDS011;56843;52.020;5.670;2022-08-14T05:47:44;13.55;;;6.22;;
69623;SDS011;56843;52.020;5.670;2022-08-14T05:49:14;11.30;;;6.13;;
69623;SDS011;56843;52.020;5.670;2022-08-14T05:50:44;10.38;;;6.22;;
69623;SDS011;56843;52.020;5.670;2022-08-14T05:52:15;10.23;;;6.03;;
69623;SDS011;56843;52.020;5.670;2022-08-14T05:53:46;9.97;;;6.03;;
69623;SDS011;56843;52.020;5.670;2022-08-14T05:55:16;11.20;;;6.15;;
69623;SDS011;56843;52.020;5.670;2022-08-14T05:56:47;14.93;;;5.97;;
69623;SDS011;56843;52.020;5.670;2022-08-14T05:58:18;11.07;;;5.97;;
69623;SDS011;56843;52.020;5.670;2022-08-14T05:59:48;12.75;;;6.47;;
69623;SDS011;56843;52.020;5.670;2022-08-14T06:01:19;12.17;;;5.70;;
69623;SDS011;56843;52.020;5.670;2022-08-14T06:02:50;12.55;;;5.97;;
69623;SDS011;56843;52.020;5.670;2022-08-14T06:04:27;10.93;;;6.30;;
69623;SDS011;56843;52.020;5.670;2022-08-14T06:05:58;12.55;;;6.68;;
69623;SDS011;56843;52.020;5.670;2022-08-14T06:07:28;10.17;;;6.00;;
69623;SDS011;56843;52.020;5.670;2022-08-14T06:08:59;15.23;;;6.00;;
69623;SDS011;56843;52.020;5.670;2022-08-14T06:10:29;14.67;;;6.13;;
69623;SDS011;56843;52.020;5.670;2022-08-14T06:12:00;11.50;;;5.95;;
69623;SDS011;56843;52.020;5.670;2022-08-14T06:13:31;10.18;;;6.10;;
69623;SDS011;56843;52.020;5.670;2022-08-14T06:15:12;10.23;;;5.00;;
69623;SDS011;56843;52.020;5.670;2022-08-14T06:16:42;10.57;;;6.23;;
69623;SDS011;56843;52.020;5.670;2022-08-14T06:18:14;11.05;;;6.25;;
69623;SDS011;56843;52.020;5.670;2022-08-14T06:19:45;11.68;;;6.07;;
69623;SDS011;56843;52.020;5.670;2022-08-14T06:21:15;11.77;;;6.13;;
69623;SDS011;56843;52.020;5.670;2022-08-14T06:22:46;16.37;;;6.80;;
69623;SDS011;56843;52.020;5.670;2022-08-14T06:24:16;11.30;;;6.20;;
69623;SDS011;56843;52.020;5.670;2022-08-14T06:25:48;12.82;;;6.43;;
69623;SDS011;56843;52.020;5.670;2022-08-14T06:27:18;11.32;;;5.88;;
69623;SDS011;56843;52.020;5.670;2022-08-14T06:28:49;10.33;;;5.80;;
69623;SDS011;56843;52.020;5.670;2022-08-14T06:30:24;10.98;;;6.50;;
69623;SDS011;56843;52.020;5.670;2022-08-14T06:31:56;14.15;;;5.93;;
69623;SDS011;56843;52.020;5.670;2022-08-14T06:33:27;11.45;;;6.63;;
69623;SDS011;56843;52.020;5.670;2022-08-14T06:34:58;10.63;;;5.60;;
69623;SDS011;56843;52.020;5.670;2022-08-14T06:36:28;11.50;;;6.10;;
69623;SDS011;56843;52.020;5.670;2022-08-14T06:37:59;11.30;;;5.45;;
69623;SDS011;56843;52.020;5.670;2022-08-14T06:39:30;9.93;;;5.50;;
69623;SDS011;56843;52.020;5.670;2022-08-14T06:41:00;10.25;;;6.10;;
69623;SDS011;56843;52.020;5.670;2022-08-14T06:42:31;10.90;;;5.90;;
69623;SDS011;56843;52.020;5.670;2022-08-14T06:44:01;12.77;;;5.10;;
69623;SDS011;56843;52.020;5.670;2022-08-14T06:45:33;10.63;;;5.87;;
69623;SDS011;56843;52.020;5.670;2022-08-14T06:47:05;11.50;;;5.97;;
69623;SDS011;56843;52.020;5.670;2022-08-14T06:48:35;10.10;;;5.30;;
69623;SDS011;56843;52.020;5.670;2022-08-14T06:50:08;10.97;;;6.00;;
69623;SDS011;56843;52.020;5.670;2022-08-14T06:51:40;10.20;;;5.65;;
69623;SDS011;56843;52.020;5.670;2022-08-14T06:53:15;9.48;;;5.45;;
69623;SDS011;56843;52.020;5.670;2022-08-14T06:54:46;10.18;;;5.70;;
69623;SDS011;56843;52.020;5.670;2022-08-14T06:56:17;12.23;;;5.77;;
69623;SDS011;56843;52.020;5.670;2022-08-14T06:57:48;9.53;;;5.30;;
69623;SDS011;56843;52.020;5.670;2022-08-14T06:59:20;10.60;;;5.30;;
69623;SDS011;56843;52.020;5.670;2022-08-14T07:00:51;9.73;;;4.97;;
69623;SDS011;56843;52.020;5.670;2022-08-14T07:02:40;8.80;;;4.50;;
69623;SDS011;56843;52.020;5.670;2022-08-14T07:04:29;11.63;;;5.25;;
69623;SDS011;56843;52.020;5.670;2022-08-14T07:06:17;8.98;;;4.78;;
69623;SDS011;56843;52.020;5.670;2022-08-14T07:07:48;9.40;;;5.22;;
69623;SDS011;56843;52.020;5.670;2022-08-14T07:09:19;9.67;;;5.37;;
69623;SDS011;56843;52.020;5.670;2022-08-14T07:10:51;8.40;;;4.80;;
69623;SDS011;56843;52.020;5.670;2022-08-14T07:12:23;12.13;;;4.68;;
69623;SDS011;56843;52.020;5.670;2022-08-14T07:13:53;14.90;;;5.40;;
69623;SDS011;56843;52.020;5.670;2022-08-14T07:15:23;11.23;;;4.80;;
69623;SDS011;56843;52.020;5.670;2022-08-14T07:16:54;9.00;;;4.30;;
69623;SDS011;56843;52.020;5.670;2022-08-14T07:18:25;11.97;;;5.20;;
69623;SDS011;56843;52.020;5.670;2022-08-14T07:19:57;11.57;;;5.00;;
69623;SDS011;56843;52.020;5.670;2022-08-14T07:21:28;12.10;;;4.93;;
69623;SDS011;56843;52.020;5.670;2022-08-14T07:23:02;10.43;;;5.20;;
69623;SDS011;56843;52.020;5.670;2022-08-14T07:24:34;10.35;;;4.90;;
69623;SDS011;56843;52.020;5.670;2022-08-14T07:26:04;10.47;;;5.07;;
69623;SDS011;56843;52.020;5.670;2022-08-14T07:27:37;9.23;;;4.97;;
69623;SDS011;56843;52.020;5.670;2022-08-14T07:29:08;9.38;;;4.70;;
69623;SDS011;56843;52.020;5.670;2022-08-14T07:30:39;9.60;;;5.20;;
69623;SDS011;56843;52.020;5.670;2022-08-14T07:32:10;10.07;;;4.70;;
69623;SDS011;56843;52.020;5.670;2022-08-14T07:33:42;11.20;;;5.13;;
69623;SDS011;56843;52.020;5.670;2022-08-14T07:35:15;8.45;;;4.45;;
69623;SDS011;56843;52.020;5.670;2022-08-14T07:36:45;9.75;;;4.43;;
69623;SDS011;56843;52.020;5.670;2022-08-14T07:38:18;8.53;;;4.93;;
69623;SDS011;56843;52.020;5.670;2022-08-14T07:39:50;12.50;;;5.47;;
69623;SDS011;56843;52.020;5.670;2022-08-14T07:41:20;8.73;;;5.03;;
69623;SDS011;56843;52.020;5.670;2022-08-14T07:42:51;8.53;;;5.23;;
69623;SDS011;56843;52.020;5.670;2022-08-14T07:44:22;8.57;;;4.88;;
69623;SDS011;56843;52.020;5.670;2022-08-14T07:45:52;9.53;;;4.67;;
69623;SDS011;56843;52.020;5.670;2022-08-14T07:47:23;10.10;;;4.90;;
69623;SDS011;56843;52.020;5.670;2022-08-14T07:48:53;8.47;;;4.97;;
69623;SDS011;56843;52.020;5.670;2022-08-14T07:50:25;7.35;;;4.43;;
69623;SDS011;56843;52.020;5.670;2022-08-14T07:51:56;10.77;;;4.90;;
69623;SDS011;56843;52.020;5.670;2022-08-14T07:53:26;8.80;;;4.70;;
69623;SDS011;56843;52.020;5.670;2022-08-14T07:54:57;8.88;;;4.93;;
69623;SDS011;56843;52.020;5.670;2022-08-14T07:56:29;8.63;;;4.82;;
69623;SDS011;56843;52.020;5.670;2022-08-14T07:58:00;8.93;;;4.80;;
69623;SDS011;56843;52.020;5.670;2022-08-14T07:59:30;10.50;;;4.97;;
69623;SDS011;56843;52.020;5.670;2022-08-14T08:01:01;7.33;;;4.27;;
69623;SDS011;56843;52.020;5.670;2022-08-14T08:02:31;10.53;;;5.17;;
69623;SDS011;56843;52.020;5.670;2022-08-14T08:04:02;8.02;;;4.80;;
69623;SDS011;56843;52.020;5.670;2022-08-14T08:05:33;13.18;;;4.68;;
69623;SDS011;56843;52.020;5.670;2022-08-14T08:07:04;7.57;;;4.37;;
69623;SDS011;56843;52.020;5.670;2022-08-14T08:08:34;8.02;;;4.72;;
69623;SDS011;56843;52.020;5.670;2022-08-14T08:10:06;9.50;;;4.77;;
69623;SDS011;56843;52.020;5.670;2022-08-14T08:11:59;8.43;;;4.78;;
69623;SDS011;56843;52.020;5.670;2022-08-14T08:13:34;8.13;;;4.25;;
69623;SDS011;56843;52.020;5.670;2022-08-14T08:15:10;8.82;;;4.70;;
69623;SDS011;56843;52.020;5.670;2022-08-14T08:16:41;8.80;;;4.80;;
69623;SDS011;56843;52.020;5.670;2022-08-14T08:18:12;7.88;;;4.47;;
69623;SDS011;56843;52.020;5.670;2022-08-14T08:19:45;7.18;;;4.25;;
69623;SDS011;56843;52.020;5.670;2022-08-14T08:21:17;8.43;;;4.93;;
69623;SDS011;56843;52.020;5.670;2022-08-14T08:22:48;8.47;;;4.80;;
69623;SDS011;56843;52.020;5.670;2022-08-14T08:24:21;8.27;;;4.68;;
69623;SDS011;56843;52.020;5.670;2022-08-14T08:25:51;8.32;;;3.97;;
69623;SDS011;56843;52.020;5.670;2022-08-14T08:27:22;7.27;;;3.77;;
69623;SDS011;56843;52.020;5.670;2022-08-14T08:28:55;10.83;;;4.67;;
69623;SDS011;56843;52.020;5.670;2022-08-14T08:30:28;7.77;;;4.60;;
69623;SDS011;56843;52.020;5.670;2022-08-14T08:32:00;8.38;;;4.32;;
69623;SDS011;56843;52.020;5.670;2022-08-14T08:33:32;9.95;;;4.38;;
69623;SDS011;56843;52.020;5.670;2022-08-14T08:35:04;13.90;;;4.78;;
69623;SDS011;56843;52.020;5.670;2022-08-14T08:36:40;7.90;;;4.20;;
69623;SDS011;56843;52.020;5.670;2022-08-14T08:38:12;9.13;;;4.55;;
69623;SDS011;56843;52.020;5.670;2022-08-14T08:39:47;7.55;;;4.70;;
69623;SDS011;56843;52.020;5.670;2022-08-14T08:41:18;11.18;;;5.13;;
69623;SDS011;56843;52.020;5.670;2022-08-14T08:42:48;11.88;;;4.40;;
69623;SDS011;56843;52.020;5.670;2022-08-14T08:44:19;8.07;;;4.57;;
69623;SDS011;56843;52.020;5.670;2022-08-14T08:45:55;8.95;;;4.85;;
69623;SDS011;56843;52.020;5.670;2022-08-14T08:47:36;8.68;;;4.43;;
69623;SDS011;56843;52.020;5.670;2022-08-14T08:49:08;7.13;;;3.97;;
69623;SDS011;56843;52.020;5.670;2022-08-14T08:50:39;7.60;;;3.63;;
69623;SDS011;56843;52.020;5.670;2022-08-14T08:52:10;8.75;;;4.25;;
69623;SDS011;56843;52.020;5.670;2022-08-14T08:53:40;9.00;;;4.43;;
69623;SDS011;56843;52.020;5.670;2022-08-14T08:55:11;7.82;;;4.25;;
69623;SDS011;56843;52.020;5.670;2022-08-14T08:56:42;7.57;;;4.23;;
69623;SDS011;56843;52.020;5.670;2022-08-14T08:58:15;10.20;;;4.47;;
69623;SDS011;56843;52.020;5.670;2022-08-14T08:59:47;16.50;;;4.73;;
69623;SDS011;56843;52.020;5.670;2022-08-14T09:01:17;15.63;;;4.77;;
69623;SDS011;56843;52.020;5.670;2022-08-14T09:02:58;10.25;;;5.28;;
69623;SDS011;56843;52.020;5.670;2022-08-14T09:06:06;8.77;;;4.10;;
69623;SDS011;56843;52.020;5.670;2022-08-14T09:07:37;7.70;;;3.92;;
69623;SDS011;56843;52.020;5.670;2022-08-14T09:09:19;8.13;;;4.37;;
69623;SDS011;56843;52.020;5.670;2022-08-14T09:10:50;10.55;;;4.35;;
69623;SDS011;56843;52.020;5.670;2022-08-14T09:12:21;10.23;;;4.60;;
69623;SDS011;56843;52.020;5.670;2022-08-14T09:13:52;9.63;;;4.87;;
69623;SDS011;56843;52.020;5.670;2022-08-14T09:15:23;8.35;;;4.20;;
69623;SDS011;56843;52.020;5.670;2022-08-14T09:16:54;7.50;;;4.63;;